Time;durP1;ratioP1;P1;durP2;ratioP2;P2;SDS_P1;SDS_P2;PMS_P1;PMS_P2;Temp;Humidity;BMP_temperature;BMP_pressure;BME280_temperature;BME280_humidity;BME280_pressure;Samples;Min_cycle;Max_cycle;Signal;HPM_P1;HPM_P2
2023/06/04 00:00:37;;;;;;;28.70;19.35;;;;;;;26.36;67.19;98189.91;4969337;28;20042;-61
2023/06/04 00:03:07;;;;;;;33.70;20.35;;;;;;;26.16;67.24;98196.56;4967382;28;20050;-61
2023/06/04 00:05:36;;;;;;;36.42;20.58;;;;;;;26.21;67.55;98195.69;4965829;28;20529;-61
2023/06/04 00:08:05;;;;;;;38.35;20.20;;;;;;;26.27;67.32;98200.69;4951962;28;20051;-61
2023/06/04 00:10:35;;;;;;;26.85;19.92;;;;;;;26.21;67.50;98195.69;4966748;28;20597;-60
2023/06/04 00:13:04;;;;;;;33.92;20.13;;;;;;;26.18;67.27;98210.66;4964825;28;20046;-61
2023/06/04 00:15:33;;;;;;;41.17;20.58;;;;;;;26.18;67.31;98207.94;4968011;28;20427;-62
2023/06/04 00:18:03;;;;;;;40.70;21.40;;;;;;;26.19;66.69;98211.47;4967147;28;20039;-63
2023/06/04 00:20:33;;;;;;;39.25;20.55;;;;;;;26.19;67.31;98212.25;4965431;28;20132;-63
2023/06/04 00:23:03;;;;;;;44.95;21.00;;;;;;;26.19;67.19;98214.19;4953230;28;20055;-62
2023/06/04 00:25:32;;;;;;;41.13;22.95;;;;;;;26.23;67.25;98212.47;4968218;28;20149;-61
2023/06/04 00:28:01;;;;;;;43.92;22.80;;;;;;;26.28;66.49;98218.59;4968858;28;20039;-61
2023/06/04 00:30:31;;;;;;;45.70;25.92;;;;;;;26.28;67.00;98224.03;4963979;28;20050;-60
2023/06/04 00:33:01;;;;;;;51.78;26.30;;;;;;;26.22;66.89;98227.16;4950206;28;20506;-60
2023/06/04 00:35:32;;;;;;;43.22;26.10;;;;;;;26.19;66.53;98219.59;4952537;28;20473;-60
2023/06/04 00:38:02;;;;;;;46.95;27.92;;;;;;;26.16;66.87;98220.19;4954831;28;20046;-62
2023/06/04 00:40:33;;;;;;;51.17;28.15;;;;;;;26.15;67.26;98224.03;4968852;28;20621;-60
2023/06/04 00:43:02;;;;;;;46.22;25.85;;;;;;;26.19;68.03;98235.88;4967261;28;20101;-62
2023/06/04 00:45:32;;;;;;;38.83;28.13;;;;;;;26.17;68.08;98230.75;4964660;28;20046;-62
2023/06/04 00:48:02;;;;;;;53.97;27.67;;;;;;;26.16;68.95;98225.63;4953308;28;20764;-62
2023/06/04 00:50:33;;;;;;;34.15;25.63;;;;;;;26.16;69.08;98234.56;4953432;28;20043;-61
2023/06/04 00:53:03;;;;;;;42.08;26.75;;;;;;;26.12;69.51;98236.28;4969455;28;20047;-62
2023/06/04 00:55:33;;;;;;;38.58;26.70;;;;;;;26.11;69.84;98242.81;4953806;28;20051;-63
2023/06/04 00:58:04;;;;;;;42.05;26.42;;;;;;;26.11;70.17;98245.53;4973677;28;20042;-63
2023/06/04 01:00:36;;;;;;;48.60;26.02;;;;;;;26.14;69.90;98249.56;4941921;28;20054;-60
2023/06/04 01:03:11;;;;;;;42.30;27.10;;;;;;;26.16;70.36;98255.47;4956015;28;20043;-60
2023/06/04 01:05:44;;;;;;;45.03;25.77;;;;;;;26.21;70.26;98255.41;4965462;28;20175;-62
2023/06/04 01:08:15;;;;;;;43.50;25.70;;;;;;;26.19;70.22;98261.13;4956111;28;20058;-62
2023/06/04 01:10:55;;;;;;;35.60;24.75;;;;;;;26.23;69.75;98262.16;4954387;28;20047;-60
2023/06/04 01:13:25;;;;;;;30.83;23.60;;;;;;;26.26;70.07;98266.16;4965107;28;20050;-61
2023/06/04 01:15:54;;;;;;;32.08;22.00;;;;;;;26.25;69.52;98275.41;4958690;28;20043;-61
2023/06/04 01:18:28;;;;;;;35.75;23.67;;;;;;;26.22;69.37;98276.84;4958616;28;20046;-62
2023/06/04 01:21:18;;;;;;;30.30;20.48;;;;;;;26.20;69.30;98270.09;4961181;28;20058;-61
2023/06/04 01:24:00;;;;;;;35.55;20.45;;;;;;;26.22;69.42;98278.75;4954984;28;20047;-63
2023/06/04 01:26:31;;;;;;;28.50;19.13;;;;;;;26.29;69.31;98279.94;4955605;28;20458;-62
2023/06/04 01:29:02;;;;;;;32.17;18.85;;;;;;;26.32;68.47;98283.97;4958907;28;20397;-61
2023/06/04 01:31:32;;;;;;;37.95;18.70;;;;;;;26.41;68.00;98289.47;4957687;28;20492;-63
2023/06/04 01:34:02;;;;;;;26.15;17.75;;;;;;;26.46;67.75;98283.94;4967879;28;20352;-63
2023/06/04 01:36:32;;;;;;;26.73;17.60;;;;;;;26.61;68.02;98289.00;4960962;28;20054;-61
2023/06/04 01:39:02;;;;;;;32.22;18.02;;;;;;;26.64;67.36;98289.19;4957315;28;20093;-62
2023/06/04 01:41:32;;;;;;;29.83;17.63;;;;;;;26.67;66.89;98293.22;4959558;28;20047;-62
2023/06/04 01:44:01;;;;;;;25.98;16.70;;;;;;;26.73;67.12;98295.50;4943984;28;20061;-62
2023/06/04 01:46:31;;;;;;;24.15;16.75;;;;;;;26.85;67.27;98299.59;4964719;28;20056;-61
2023/06/04 01:49:00;;;;;;;22.95;16.23;;;;;;;27.07;65.88;98295.00;4935855;28;20433;-61
2023/06/04 01:51:29;;;;;;;21.70;16.15;;;;;;;27.32;64.98;98290.81;4957051;28;20051;-62
2023/06/04 01:53:58;;;;;;;23.17;16.00;;;;;;;27.37;64.65;98287.19;4948566;29;20055;-62
2023/06/04 01:56:28;;;;;;;24.15;15.68;;;;;;;27.52;64.12;98287.63;4948899;28;20079;-61
2023/06/04 01:58:58;;;;;;;24.65;15.50;;;;;;;27.80;63.36;98290.13;4945195;28;20781;-61
2023/06/04 02:01:27;;;;;;;28.05;15.13;;;;;;;27.91;63.22;98288.72;4948675;28;20051;-60
2023/06/04 02:03:56;;;;;;;23.52;14.98;;;;;;;27.98;62.15;98291.78;4947581;28;20065;-62
2023/06/04 02:06:29;;;;;;;18.35;15.13;;;;;;;28.07;61.84;98298.06;4948019;28;20689;-61
2023/06/04 02:09:00;;;;;;;22.27;14.93;;;;;;;28.32;60.75;98300.09;4950184;28;20619;-61
2023/06/04 02:11:29;;;;;;;21.13;15.02;;;;;;;28.57;61.40;98299.31;4949780;28;20137;-62
2023/06/04 02:13:59;;;;;;;27.05;14.50;;;;;;;28.79;60.23;98305.75;4945014;28;20054;-62
2023/06/04 02:16:28;;;;;;;21.25;14.32;;;;;;;28.93;59.36;98304.47;4948462;28;20530;-61
2023/06/04 02:18:59;;;;;;;20.00;14.93;;;;;;;29.10;58.68;98287.28;4949735;28;20073;-61
2023/06/04 02:21:28;;;;;;;19.30;14.50;;;;;;;29.29;57.58;98292.41;4949510;28;20122;-61
2023/06/04 02:23:57;;;;;;;20.63;13.73;;;;;;;29.53;56.87;98297.31;4948111;28;20455;-62
2023/06/04 02:26:27;;;;;;;18.15;14.00;;;;;;;29.94;57.10;98292.06;4964242;28;20114;-62
2023/06/04 02:28:56;;;;;;;20.13;13.30;;;;;;;30.33;55.12;98291.66;4948559;29;20444;-61
2023/06/04 02:31:25;;;;;;;19.60;13.75;;;;;;;30.52;54.01;98295.91;4948256;28;20055;-61
2023/06/04 02:33:56;;;;;;;21.38;13.30;;;;;;;30.92;53.09;98302.50;4949935;28;20130;-61
2023/06/04 02:36:25;;;;;;;19.95;12.50;;;;;;;31.23;52.50;98296.59;4948335;28;20063;-63
2023/06/04 02:38:55;;;;;;;19.38;12.40;;;;;;;31.37;52.51;98293.56;4949500;28;20075;-61
2023/06/04 02:41:25;;;;;;;17.50;12.07;;;;;;;31.55;50.58;98300.50;4945646;28;20059;-60
2023/06/04 02:43:54;;;;;;;19.15;12.93;;;;;;;31.65;49.80;98291.81;4948115;28;20051;-62
2023/06/04 02:46:24;;;;;;;17.73;11.82;;;;;;;31.88;50.07;98301.19;4947500;28;20055;-61
2023/06/04 02:48:54;;;;;;;16.50;11.65;;;;;;;31.91;49.64;98297.00;4948630;29;20099;-62
2023/06/04 02:51:24;;;;;;;19.70;13.10;;;;;;;32.17;49.97;98299.41;4948259;28;20121;-62
2023/06/04 02:53:53;;;;;;;21.88;11.65;;;;;;;32.35;49.62;98296.06;4945949;28;20047;-63
2023/06/04 02:56:22;;;;;;;16.42;11.95;;;;;;;32.28;48.94;98301.31;4948911;28;20081;-63
2023/06/04 02:58:56;;;;;;;16.45;11.93;;;;;;;32.49;48.08;98307.47;4948550;28;20482;-62
2023/06/04 03:01:26;;;;;;;20.48;13.02;;;;;;;32.48;48.42;98308.63;4950410;28;20051;-62
2023/06/04 03:04:01;;;;;;;21.90;12.77;;;;;;;32.49;48.24;98315.69;4947207;29;20488;-62
2023/06/04 03:06:34;;;;;;;23.27;12.80;;;;;;;32.66;47.25;98317.41;4951762;28;20046;-62
2023/06/04 03:09:04;;;;;;;;;;;;;;;32.68;47.64;98323.34;4950954;28;20046;-62
2023/06/04 03:11:33;;;;;;;17.10;12.38;;;;;;;32.46;47.60;98312.84;4959758;28;19933;-63
2023/06/04 03:14:02;;;;;;;28.30;12.88;;;;;;;32.55;47.58;98316.25;4951525;28;20050;-64
2023/06/04 03:16:32;;;;;;;22.42;11.90;;;;;;;32.80;48.85;98312.31;4940346;28;20431;-64
2023/06/04 03:19:03;;;;;;;26.77;12.18;;;;;;;32.84;47.02;98324.19;4942629;28;20058;-64
2023/06/04 03:21:32;;;;;;;19.67;12.35;;;;;;;32.85;48.10;98319.50;4952041;28;20038;-65
2023/06/04 03:24:06;;;;;;;20.65;12.68;;;;;;;32.78;46.66;98320.13;4935403;28;20067;-64
2023/06/04 03:26:36;;;;;;;34.78;12.10;;;;;;;33.00;48.77;98320.72;4951187;28;20062;-63
2023/06/04 03:29:05;;;;;;;19.67;10.80;;;;;;;32.93;46.99;98316.63;4930477;28;20443;-61
2023/06/04 03:31:35;;;;;;;23.42;12.25;;;;;;;33.04;47.51;98316.94;4950234;28;20658;-64
2023/06/04 03:34:05;;;;;;;22.33;11.82;;;;;;;33.19;45.71;98318.16;4951134;28;20416;-63
2023/06/04 03:36:37;;;;;;;17.05;11.63;;;;;;;33.45;45.38;98318.50;4949909;28;20051;-62
2023/06/04 03:39:08;;;;;;;16.00;11.15;;;;;;;33.46;46.39;98320.06;4957823;28;20146;-64
2023/06/04 03:41:37;;;;;;;17.08;10.68;;;;;;;33.44;45.21;98318.84;4953623;28;20051;-63
2023/06/04 03:44:07;;;;;;;19.38;11.18;;;;;;;33.32;46.50;98322.44;4946474;28;20043;-62
2023/06/04 03:46:36;;;;;;;24.10;12.65;;;;;;;33.16;44.76;98335.31;4951168;28;20138;-62
2023/06/04 03:49:05;;;;;;;19.63;11.50;;;;;;;33.26;45.21;98334.81;4950960;28;20115;-62
2023/06/04 03:51:36;;;;;;;21.17;10.80;;;;;;;33.32;45.90;98334.25;4953789;28;20054;-62
2023/06/04 03:54:06;;;;;;;21.77;11.50;;;;;;;33.47;45.88;98338.16;4961156;28;20812;-63
2023/06/04 03:56:36;;;;;;;19.08;11.32;;;;;;;33.46;44.63;98333.78;4957569;28;20105;-63
2023/06/04 03:59:08;;;;;;;23.55;11.65;;;;;;;33.53;45.87;98338.69;4957690;28;20042;-62
2023/06/04 04:01:38;;;;;;;18.48;12.00;;;;;;;33.45;44.97;98337.72;4967960;28;20474;-63
2023/06/04 04:04:08;;;;;;;20.02;12.02;;;;;;;33.62;46.56;98328.34;4962243;28;20063;-63
2023/06/04 04:06:39;;;;;;;25.40;13.65;;;;;;;33.58;45.70;98341.19;4951495;28;20082;-62
2023/06/04 04:09:10;;;;;;;20.33;12.77;;;;;;;33.14;45.51;98330.19;4974789;28;20047;-61
2023/06/04 04:11:40;;;;;;;23.85;13.30;;;;;;;33.27;44.96;98325.44;4946013;28;20320;-63
2023/06/04 04:14:10;;;;;;;21.10;12.25;;;;;;;33.33;47.04;98324.03;4957645;28;20042;-63
2023/06/04 04:16:40;;;;;;;22.67;11.57;;;;;;;33.55;45.58;98326.19;4957618;28;20058;-64
2023/06/04 04:19:11;;;;;;;18.10;11.77;;;;;;;33.74;44.68;98318.09;4958591;28;20880;-63
2023/06/04 04:21:40;;;;;;;19.73;11.10;;;;;;;33.69;43.88;98320.31;4961530;28;20042;-64
2023/06/04 04:24:10;;;;;;;18.67;10.80;;;;;;;34.17;44.51;98330.97;4959940;28;20596;-65
2023/06/04 04:26:39;;;;;;;17.77;9.48;;;;;;;34.28;42.88;98331.22;4959728;28;20380;-65
2023/06/04 04:29:09;;;;;;;21.08;9.27;;;;;;;34.12;43.20;98327.66;4955033;28;20051;-65
2023/06/04 04:31:39;;;;;;;14.18;9.32;;;;;;;34.26;43.88;98315.06;4962185;28;20050;-64
2023/06/04 04:34:09;;;;;;;16.10;9.23;;;;;;;34.69;43.10;98325.13;4957232;28;20433;-65
2023/06/04 04:36:41;;;;;;;20.08;9.68;;;;;;;34.80;42.87;98314.31;4957046;28;20649;-65
2023/06/04 04:39:12;;;;;;;21.17;8.50;;;;;;;34.89;40.79;98319.63;4957581;28;20126;-60
2023/06/04 04:41:41;;;;;;;20.65;8.80;;;;;;;34.89;40.68;98325.13;4961686;28;20129;-61
2023/06/04 04:44:11;;;;;;;17.27;8.57;;;;;;;35.08;40.41;98319.63;4954809;28;20113;-62
2023/06/04 04:46:40;;;;;;;20.85;9.32;;;;;;;35.07;41.62;98318.81;4959617;28;20047;-62
2023/06/04 04:49:10;;;;;;;28.00;10.05;;;;;;;35.09;41.12;98321.22;4959794;28;20668;-63
2023/06/04 04:51:40;;;;;;;19.35;9.25;;;;;;;35.21;39.61;98318.34;4958663;28;20730;-61
2023/06/04 04:54:10;;;;;;;15.70;9.60;;;;;;;34.93;40.95;98321.28;4962915;28;20492;-63
2023/06/04 04:56:40;;;;;;;20.45;8.93;;;;;;;34.89;39.25;98322.38;4958049;28;20068;-64
2023/06/04 04:59:09;;;;;;;21.33;9.43;;;;;;;35.69;41.95;98321.59;4952815;28;20087;-64
2023/06/04 05:01:39;;;;;;;17.00;9.32;;;;;;;35.99;40.74;98326.06;4939870;28;20109;-64
2023/06/04 05:04:08;;;;;;;16.40;9.10;;;;;;;35.90;40.53;98327.47;4950168;28;20130;-65
2023/06/04 05:06:40;;;;;;;16.20;8.65;;;;;;;35.92;38.41;98325.94;4955029;28;20601;-65
2023/06/04 05:09:09;;;;;;;17.48;8.75;;;;;;;35.94;38.13;98328.31;4950189;28;20043;-64
2023/06/04 05:11:39;;;;;;;19.55;9.38;;;;;;;35.54;38.57;98326.81;4956286;28;20046;-67
2023/06/04 05:14:10;;;;;;;15.00;8.80;;;;;;;35.64;38.75;98324.63;4950706;28;20044;-68
2023/06/04 05:16:41;;;;;;;17.75;8.57;;;;;;;36.03;39.06;98323.34;4953806;28;20061;-67
2023/06/04 05:19:13;;;;;;;16.38;9.18;;;;;;;36.30;37.25;98330.50;4963925;28;20058;-63
2023/06/04 05:21:44;;;;;;;11.75;8.55;;;;;;;36.64;39.77;98317.66;4955075;28;20070;-67
2023/06/04 05:24:13;;;;;;;16.65;9.38;;;;;;;36.32;39.56;98321.88;4958221;28;20043;-64
2023/06/04 05:26:43;;;;;;;21.67;10.48;;;;;;;35.48;37.26;98316.47;4961006;28;20121;-62
2023/06/04 05:29:18;;;;;;;19.08;9.95;;;;;;;35.81;39.87;98316.69;4957326;28;20134;-63
2023/06/04 05:31:48;;;;;;;16.25;10.65;;;;;;;36.14;36.61;98305.06;4952211;28;20051;-62
2023/06/04 05:34:21;;;;;;;18.65;9.75;;;;;;;35.91;37.51;98301.50;4957094;28;20078;-64
2023/06/04 05:36:52;;;;;;;20.85;9.73;;;;;;;35.79;37.08;98298.94;4954973;28;20031;-64
2023/06/04 05:39:23;;;;;;;23.25;10.18;;;;;;;35.88;37.99;98302.25;4957258;28;20071;-66
2023/06/04 05:41:58;;;;;;;20.25;10.93;;;;;;;35.77;34.86;98299.31;4960010;28;20120;-64
2023/06/04 05:44:28;;;;;;;20.05;10.05;;;;;;;35.62;37.72;98296.66;4956786;28;20471;-64
2023/06/04 05:46:58;;;;;;;18.58;9.13;;;;;;;35.62;37.17;98288.38;4956538;28;20435;-65
2023/06/04 05:49:28;;;;;;;18.70;9.60;;;;;;;35.74;37.32;98290.97;4948578;28;20039;-62
2023/06/04 05:52:01;;;;;;;18.90;10.27;;;;;;;35.93;34.52;98294.47;4960808;28;20043;-65
2023/06/04 05:54:31;;;;;;;18.80;10.43;;;;;;;36.37;36.00;98294.78;4956596;28;20138;-64
2023/06/04 05:57:01;;;;;;;23.38;10.88;;;;;;;36.58;36.25;98287.94;4965196;28;20050;-67
2023/06/04 05:59:30;;;;;;;27.92;13.40;;;;;;;36.22;37.94;98290.19;4959853;28;20055;-65
2023/06/04 06:02:02;;;;;;;26.25;13.43;;;;;;;36.23;36.55;98282.72;4946864;28;21134;-63
2023/06/04 06:04:41;;;;;;;20.88;12.55;;;;;;;36.42;38.47;98282.63;4949758;28;20051;-64
2023/06/04 06:07:11;;;;;;;24.00;12.05;;;;;;;36.18;36.89;98283.84;4953333;28;20053;-63
2023/06/04 06:09:41;;;;;;;18.40;10.65;;;;;;;35.76;36.60;98274.88;4943170;28;20038;-65
2023/06/04 06:12:11;;;;;;;14.75;8.63;;;;;;;35.49;35.91;98277.56;4951666;28;20054;-66
2023/06/04 06:14:42;;;;;;;16.10;8.30;;;;;;;35.78;38.61;98276.09;4950574;28;20062;-64
2023/06/04 06:17:13;;;;;;;18.95;8.90;;;;;;;36.04;38.71;98262.31;4962547;28;20055;-65
2023/06/04 06:19:43;;;;;;;18.52;8.68;;;;;;;36.18;38.55;98272.81;4947887;28;20051;-65
2023/06/04 06:22:12;;;;;;;15.23;8.25;;;;;;;35.73;36.55;98270.09;4944265;28;20051;-65
2023/06/04 06:24:42;;;;;;;13.65;8.02;;;;;;;35.84;38.25;98273.81;4943256;28;20051;-65
2023/06/04 06:27:15;;;;;;;13.48;6.93;;;;;;;36.18;37.19;98267.28;4945973;28;20081;-64
2023/06/04 06:29:48;;;;;;;13.30;6.75;;;;;;;36.10;36.07;98259.25;4943746;28;20113;-61
2023/06/04 06:32:17;;;;;;;11.63;7.00;;;;;;;35.97;34.27;98261.44;4954249;28;20482;-61
2023/06/04 06:34:48;;;;;;;19.52;6.60;;;;;;;35.76;36.43;98255.59;4944281;28;20150;-63
2023/06/04 06:37:17;;;;;;;13.05;7.25;;;;;;;35.83;36.79;98255.69;4948834;28;20110;-62
2023/06/04 06:39:46;;;;;;;18.67;7.30;;;;;;;36.28;36.64;98260.34;4947133;28;20051;-61
2023/06/04 06:42:18;;;;;;;13.45;7.13;;;;;;;35.72;34.27;98261.03;4951804;28;20043;-62
2023/06/04 06:44:50;;;;;;;16.92;6.60;;;;;;;35.87;35.61;98259.31;4962683;28;20526;-65
2023/06/04 06:47:20;;;;;;;12.40;6.63;;;;;;;35.56;36.47;98254.81;4949629;28;20058;-61
2023/06/04 06:49:50;;;;;;;8.32;6.00;;;;;;;35.82;35.92;98256.84;4950562;28;20140;-61
2023/06/04 06:52:19;;;;;;;18.25;4.65;;;;;;;35.62;32.31;98252.56;4969709;28;20055;-61
2023/06/04 06:54:52;;;;;;;13.85;4.75;;;;;;;35.60;35.05;98262.00;4980152;28;20134;-62
2023/06/04 06:57:22;;;;;;;12.40;5.45;;;;;;;35.80;33.34;98251.72;4979597;28;20149;-60
2023/06/04 06:59:53;;;;;;;11.18;5.53;;;;;;;35.84;32.91;98254.53;4976595;28;20505;-60
2023/06/04 07:02:23;;;;;;;14.85;4.97;;;;;;;35.48;32.87;98255.88;4976788;28;20035;-65
2023/06/04 07:04:53;;;;;;;14.48;5.60;;;;;;;35.56;34.26;98247.34;4941358;28;20047;-64
2023/06/04 07:07:22;;;;;;;11.02;5.43;;;;;;;35.87;34.90;98240.00;4970116;28;20132;-65
2023/06/04 07:09:52;;;;;;;10.02;5.40;;;;;;;35.99;33.37;98231.50;4953981;28;20565;-65
2023/06/04 07:12:21;;;;;;;13.57;5.15;;;;;;;36.03;33.59;98232.34;4968478;28;20055;-66
2023/06/04 07:14:51;;;;;;;13.10;5.60;;;;;;;35.85;32.90;98229.34;4964191;28;20530;-69
2023/06/04 07:17:21;;;;;;;12.88;5.53;;;;;;;35.75;35.65;98234.69;4955501;28;21492;-65
2023/06/04 07:19:51;;;;;;;12.18;5.63;;;;;;;35.83;36.30;98233.66;4969036;28;20057;-65
2023/06/04 07:22:21;;;;;;;16.27;5.57;;;;;;;35.74;33.86;98233.09;4968736;28;20053;-62
2023/06/04 07:24:51;;;;;;;10.25;4.95;;;;;;;35.85;35.61;98223.06;4951246;28;20195;-65
2023/06/04 07:27:22;;;;;;;10.63;5.70;;;;;;;35.71;30.30;98226.38;4970390;28;20395;-65
2023/06/04 07:29:51;;;;;;;10.77;4.85;;;;;;;35.99;34.33;98220.47;4968490;28;20046;-66
2023/06/04 07:32:20;;;;;;;16.63;5.50;;;;;;;35.74;31.96;98211.84;4956781;28;20069;-64
2023/06/04 07:34:50;;;;;;;8.93;4.70;;;;;;;35.88;33.66;98211.28;4969163;28;20057;-63
2023/06/04 07:37:19;;;;;;;12.93;4.95;;;;;;;36.02;33.01;98203.22;4966837;28;20353;-64
2023/06/04 07:39:48;;;;;;;8.25;4.72;;;;;;;35.92;33.49;98203.84;4970756;28;20046;-63
2023/06/04 07:42:18;;;;;;;7.70;4.25;;;;;;;35.96;33.54;98204.69;4969123;28;20055;-63
2023/06/04 07:44:48;;;;;;;9.32;4.10;;;;;;;35.94;33.10;98199.53;4972232;28;20058;-65
2023/06/04 07:47:20;;;;;;;11.57;4.90;;;;;;;35.51;31.21;98191.75;4962213;28;20079;-64
2023/06/04 07:49:50;;;;;;;10.60;5.10;;;;;;;35.54;30.80;98194.56;4961856;28;20046;-63
2023/06/04 07:52:30;;;;;;;9.77;4.90;;;;;;;35.73;33.54;98190.97;4969500;28;20050;-64
2023/06/04 07:55:00;;;;;;;13.32;5.25;;;;;;;35.80;32.60;98190.28;4962203;28;20051;-65
2023/06/04 07:57:30;;;;;;;14.43;5.20;;;;;;;35.36;31.61;98184.44;4970040;28;20070;-63
2023/06/04 07:59:59;;;;;;;13.10;6.13;;;;;;;35.36;33.63;98174.19;4970168;28;20054;-61
2023/06/04 08:02:42;;;;;;;7.78;4.60;;;;;;;35.47;34.39;98179.91;4969861;28;20061;-64
2023/06/04 08:05:13;;;;;;;15.55;6.15;;;;;;;35.63;32.79;98174.25;4968857;28;20057;-66
2023/06/04 08:07:43;;;;;;;13.43;5.20;;;;;;;35.80;33.38;98176.50;4978682;28;20046;-66
2023/06/04 08:10:13;;;;;;;7.95;4.13;;;;;;;35.49;32.61;98177.56;4970631;28;20038;-63
2023/06/04 08:12:45;;;;;;;8.65;3.47;;;;;;;35.55;32.70;98160.34;4960831;28;20058;-65
2023/06/04 08:15:23;;;;;;;10.40;4.13;;;;;;;35.49;31.54;98166.56;4976773;28;20051;-64
2023/06/04 08:17:53;;;;;;;8.55;3.70;;;;;;;35.49;31.87;98159.09;4971940;28;20388;-65
2023/06/04 08:20:22;;;;;;;10.05;3.55;;;;;;;35.60;32.58;98159.25;4968206;28;20146;-64
2023/06/04 08:22:54;;;;;;;5.85;3.50;;;;;;;35.60;31.04;98156.47;4971009;28;20051;-65
2023/06/04 08:25:24;;;;;;;9.82;4.40;;;;;;;35.68;31.47;98149.13;4970905;28;20121;-65
2023/06/04 08:27:53;;;;;;;18.25;4.22;;;;;;;35.64;31.62;98148.25;4970519;28;20109;-64
2023/06/04 08:30:25;;;;;;;12.75;3.42;;;;;;;35.68;30.79;98144.44;4973581;28;20189;-64
2023/06/04 08:32:54;;;;;;;8.00;3.10;;;;;;;35.46;26.63;98136.97;4970479;28;20039;-64
2023/06/04 08:35:24;;;;;;;10.65;3.47;;;;;;;35.43;27.30;98138.53;4969991;28;20047;-64
2023/06/04 08:37:53;;;;;;;5.28;3.28;;;;;;;35.65;29.99;98133.34;4971137;28;20055;-64
2023/06/04 08:40:23;;;;;;;9.80;4.00;;;;;;;35.74;29.53;98133.88;4970171;28;20055;-65
2023/06/04 08:42:59;;;;;;;8.90;3.80;;;;;;;35.63;27.55;98121.91;4968897;28;20039;-65
2023/06/04 08:45:32;;;;;;;9.95;3.58;;;;;;;35.76;30.04;98123.28;4971032;28;20494;-65
2023/06/04 08:48:03;;;;;;;8.68;3.60;;;;;;;35.78;30.77;98118.19;4979220;28;20797;-65
2023/06/04 08:50:33;;;;;;;7.45;3.50;;;;;;;35.77;30.46;98116.59;4969999;28;20125;-66
2023/06/04 08:53:03;;;;;;;8.80;3.30;;;;;;;35.45;28.68;98105.88;4974855;28;20547;-66
2023/06/04 08:55:33;;;;;;;9.65;3.53;;;;;;;35.59;29.44;98106.09;4979423;28;20046;-67
2023/06/04 08:58:08;;;;;;;7.93;3.50;;;;;;;35.67;30.43;98096.00;4959862;28;20046;-66
2023/06/04 09:00:37;;;;;;;5.22;3.10;;;;;;;35.76;29.93;98091.00;4974358;28;20045;-64
2023/06/04 09:03:07;;;;;;;7.22;3.20;;;;;;;35.82;29.29;98088.72;4973711;28;20046;-64
2023/06/04 09:05:39;;;;;;;7.05;3.25;;;;;;;35.78;29.26;98087.88;4972349;28;20050;-65
2023/06/04 09:08:12;;;;;;;5.82;3.50;;;;;;;35.81;28.67;98073.34;4955030;28;20054;-64
2023/06/04 09:10:44;;;;;;;10.57;3.95;;;;;;;35.77;28.49;98069.75;4972375;28;20467;-65
2023/06/04 09:13:15;;;;;;;8.07;3.53;;;;;;;35.46;26.52;98071.66;4976735;28;20740;-64
2023/06/04 09:15:45;;;;;;;7.63;3.63;;;;;;;35.32;28.62;98057.66;4970079;28;20062;-65
2023/06/04 09:18:14;;;;;;;12.07;3.92;;;;;;;35.56;29.36;98060.00;4978329;28;20066;-63
2023/06/04 09:20:43;;;;;;;7.93;3.67;;;;;;;35.60;30.29;98060.84;4961792;28;20057;-62
2023/06/04 09:23:14;;;;;;;7.28;4.18;;;;;;;35.65;30.64;98068.03;4971055;28;20102;-66
2023/06/04 09:25:44;;;;;;;8.57;3.67;;;;;;;35.60;31.27;98069.09;4977736;28;20138;-64
2023/06/04 09:28:15;;;;;;;10.20;3.97;;;;;;;35.48;30.23;98063.03;4974716;28;20062;-62
2023/06/04 09:30:54;;;;;;;15.90;4.43;;;;;;;35.43;30.80;98061.38;4971985;28;20053;-61
2023/06/04 09:33:26;;;;;;;9.57;3.85;;;;;;;35.43;30.59;98055.09;4953059;28;20050;-63
2023/06/04 09:35:58;;;;;;;7.90;3.25;;;;;;;35.34;30.39;98055.34;4959029;28;20054;-63
2023/06/04 09:38:37;;;;;;;10.60;3.65;;;;;;;35.34;28.64;98047.09;4957590;28;20051;-63
2023/06/04 09:41:21;;;;;;;6.03;3.20;;;;;;;35.30;29.54;98043.50;4977758;28;20057;-63
2023/06/04 09:44:05;;;;;;;5.35;3.33;;;;;;;35.15;30.94;98047.16;4965416;28;20125;-63
2023/06/04 09:46:34;;;;;;;14.82;3.65;;;;;;;35.15;28.86;98036.13;4975104;28;20103;-63
2023/06/04 09:49:06;;;;;;;10.70;3.28;;;;;;;35.22;26.65;98036.28;4976573;28;20092;-64
2023/06/04 09:51:46;;;;;;;8.87;3.47;;;;;;;35.14;27.62;98037.31;4952456;28;20047;-62
2023/06/04 09:54:16;;;;;;;7.05;3.40;;;;;;;35.13;28.52;98025.53;4968679;28;20292;-64
2023/06/04 09:56:46;;;;;;;7.35;3.75;;;;;;;35.21;29.26;98026.44;4958115;28;20125;-66
2023/06/04 09:59:16;;;;;;;10.00;4.30;;;;;;;35.17;26.95;98022.84;4624624;28;10000203;-61
2023/06/04 10:01:47;;;;;;;12.55;4.00;;;;;;;35.21;28.91;98029.19;4954425;28;20053;-63
2023/06/04 10:04:17;;;;;;;8.10;3.53;;;;;;;35.07;28.00;98027.00;4953719;28;20050;-62
2023/06/04 10:06:47;;;;;;;7.50;3.72;;;;;;;35.24;27.92;98022.94;4972803;28;20046;-63
2023/06/04 10:09:21;;;;;;;7.25;3.90;;;;;;;35.29;26.58;98024.56;4967723;28;20045;-64
2023/06/04 10:12:01;;;;;;;8.98;4.13;;;;;;;35.18;28.28;98015.38;4965799;28;20057;-64
2023/06/04 10:14:48;;;;;;;15.07;4.13;;;;;;;35.12;26.69;98012.91;4954904;28;20046;-63
2023/06/04 10:17:25;;;;;;;10.25;4.50;;;;;;;35.26;27.09;98012.34;4972499;28;20417;-65
2023/06/04 10:19:56;;;;;;;7.80;4.00;;;;;;;35.27;26.83;98005.69;4967719;28;20133;-67
2023/06/04 10:22:28;;;;;;;11.93;3.97;;;;;;;35.24;27.22;98008.38;4973729;28;20050;-67
2023/06/04 10:25:00;;;;;;;9.00;4.10;;;;;;;35.21;27.53;98007.16;4969235;28;20050;-64
2023/06/04 10:27:31;;;;;;;9.10;4.13;;;;;;;35.10;26.12;97995.16;4970632;28;20158;-62
2023/06/04 10:30:03;;;;;;;12.52;4.78;;;;;;;35.08;27.34;97984.53;4954401;28;20047;-60
2023/06/04 10:32:32;;;;;;;10.50;4.15;;;;;;;35.16;27.47;97988.22;4964213;28;20363;-63
2023/06/04 10:35:09;;;;;;;7.60;4.00;;;;;;;35.15;27.80;97983.81;4973864;28;20126;-61
2023/06/04 10:37:38;;;;;;;8.82;4.13;;;;;;;35.16;26.82;97985.44;4973681;28;20047;-62
2023/06/04 10:40:08;;;;;;;7.95;3.75;;;;;;;35.08;28.20;97983.72;4967071;28;20109;-61
2023/06/04 10:42:43;;;;;;;8.88;4.28;;;;;;;35.09;29.08;97988.88;4970217;28;20043;-63
2023/06/04 10:45:12;;;;;;;7.45;3.70;;;;;;;35.04;29.17;97978.19;4968031;28;20066;-67
2023/06/04 10:47:43;;;;;;;9.45;3.78;;;;;;;34.96;28.66;97972.94;4963419;28;20050;-65
2023/06/04 10:50:14;;;;;;;6.65;4.10;;;;;;;34.97;28.90;97978.06;4966343;28;20055;-64
2023/06/04 10:52:54;;;;;;;9.55;3.20;;;;;;;35.03;27.96;97970.28;4953240;28;20172;-62
2023/06/04 10:55:24;;;;;;;13.00;3.55;;;;;;;35.09;28.61;97957.81;4954541;28;20058;-65
2023/06/04 10:57:56;;;;;;;8.50;3.85;;;;;;;35.10;27.74;97956.59;4953186;28;20134;-65
2023/06/04 11:00:38;;;;;;;8.60;4.07;;;;;;;35.14;27.70;97949.22;4950974;28;20050;-64
2023/06/04 11:03:10;;;;;;;8.75;3.85;;;;;;;35.11;26.45;97952.69;4953231;28;20047;-65
2023/06/04 11:05:44;;;;;;;9.15;4.25;;;;;;;35.09;25.74;97947.59;4948887;28;20078;-64
2023/06/04 11:08:15;;;;;;;10.93;4.35;;;;;;;35.09;25.61;97949.53;4951407;28;20077;-62
2023/06/04 11:10:45;;;;;;;11.65;4.03;;;;;;;34.95;26.10;97936.38;4950813;28;20621;-64
2023/06/04 11:13:15;;;;;;;10.75;4.05;;;;;;;34.99;25.34;97936.41;4943689;28;20054;-63
2023/06/04 11:15:48;;;;;;;6.00;3.78;;;;;;;34.95;28.47;97936.38;4943999;28;20078;-61
2023/06/04 11:18:18;;;;;;;;;;;;;;;34.93;26.95;97938.69;4950878;28;20051;-62
2023/06/04 11:21:01;;;;;;;8.13;3.70;;;;;;;34.93;27.73;97927.66;4949520;28;20743;-67
2023/06/04 11:23:30;;;;;;;8.55;3.58;;;;;;;34.96;28.04;97926.16;4953028;28;20062;-65
2023/06/04 11:26:00;;;;;;;7.65;3.40;;;;;;;34.92;28.68;97930.81;4950970;28;20074;-65
2023/06/04 11:28:29;;;;;;;6.20;4.00;;;;;;;34.94;28.84;97923.75;4953988;28;20055;-65
2023/06/04 11:31:03;;;;;;;11.30;3.72;;;;;;;34.94;28.83;97932.03;4954231;28;20051;-65
2023/06/04 11:33:48;;;;;;;4.75;3.42;;;;;;;34.88;29.46;97927.97;4957352;28;20055;-66
2023/06/04 11:36:27;;;;;;;8.73;3.40;;;;;;;34.83;26.53;97922.03;4948438;28;20065;-66
2023/06/04 11:38:58;;;;;;;5.20;3.28;;;;;;;34.82;29.34;97921.22;4954154;28;20047;-63
2023/06/04 11:41:31;;;;;;;6.40;3.78;;;;;;;34.78;29.17;97916.84;4952185;28;20167;-62